Medicine Hat, Canada
Current Conditions -  °F | °C
As of 11:00 PM on Sunday 19 Oct 2014 (Local Time) from CYXH Reporting Station
Clear Clear  
Wind Chill: 50°   Ceiling: Unl
Heat Index: 50°   Visibility: 9mi
Dew Point: 41°   Wind: 7mph
Humidity: 71%   Direction: 220°SW
Pressure: 29.78"   Gusts: NA
Location:  50.04°N, 110.68°W
Report Text: CYXH 200500Z AUTO 22006KT 9SM CLR 10/05 A2978 RMK SLP092 DENSITY ALT 2500FT
Loading
Personal Weather Stations






























Interactive Weather Map
Tropical Storm Tracking
New forecast layout! Learn more

10-Day Weather Forecast

Advertisements
Track Severe Weather on mobile